Time;durP1;ratioP1;P1;durP2;ratioP2;P2;SDS_P1;SDS_P2;PMS_P1;PMS_P2;Temp;Humidity;BMP_temperature;BMP_pressure;BME280_temperature;BME280_humidity;BME280_pressure;Samples;Min_cycle;Max_cycle;Signal;HPM_P1;HPM_P2
2023/09/21 00:01:06;;;;;;;0.97;0.97;;;22.60;77.00;;;;;;5068392;28;43767;-71
2023/09/21 00:03:35;;;;;;;1.27;1.27;;;22.60;77.00;;;;;;5073782;28;44165;-69
2023/09/21 00:06:04;;;;;;;1.10;1.10;;;22.70;77.10;;;;;;5048563;28;43417;-71
2023/09/21 00:08:32;;;;;;;1.20;1.20;;;22.60;77.00;;;;;;5062850;28;43381;-70
2023/09/21 00:11:03;;;;;;;1.10;1.10;;;22.60;77.00;;;;;;5068094;28;43461;-70
2023/09/21 00:13:32;;;;;;;1.00;1.00;;;22.50;77.40;;;;;;5065255;28;43604;-70
2023/09/21 00:16:01;;;;;;;1.10;1.10;;;22.50;77.40;;;;;;5070922;28;44103;-70
2023/09/21 00:18:30;;;;;;;1.20;1.20;;;22.50;77.50;;;;;;5067477;28;43379;-70
2023/09/21 00:21:07;;;;;;;1.10;1.10;;;22.50;77.30;;;;;;5067987;28;44069;-69
2023/09/21 00:23:36;;;;;;;1.10;1.10;;;22.50;77.70;;;;;;5067605;28;43597;-70
2023/09/21 00:26:07;;;;;;;1.10;1.10;;;22.50;77.70;;;;;;5067427;28;43392;-71
2023/09/21 00:28:35;;;;;;;1.10;1.10;;;22.60;77.50;;;;;;5062988;28;44071;-67
2023/09/21 00:31:04;;;;;;;1.10;1.10;;;22.70;77.10;;;;;;5060183;28;43568;-67
2023/09/21 00:33:33;;;;;;;1.13;1.13;;;22.80;76.60;;;;;;5055667;28;45834;-67
2023/09/21 00:36:04;;;;;;;1.00;1.00;;;22.90;76.30;;;;;;5057009;28;46071;-67
2023/09/21 00:38:32;;;;;;;1.20;1.20;;;22.90;76.10;;;;;;5072883;28;43974;-67
2023/09/21 00:41:03;;;;;;;1.13;1.13;;;22.80;76.20;;;;;;5067585;28;43498;-68
2023/09/21 00:43:33;;;;;;;1.27;1.27;;;22.80;76.60;;;;;;5051274;28;44125;-72
2023/09/21 00:46:04;;;;;;;1.10;1.10;;;22.70;76.70;;;;;;5068877;28;43973;-67
2023/09/21 00:48:36;;;;;;;1.20;1.20;;;22.70;76.80;;;;;;5063361;28;43392;-67
2023/09/21 00:51:07;;;;;;;1.20;1.20;;;22.70;76.90;;;;;;5054250;28;43562;-67
2023/09/21 00:53:35;;;;;;;1.03;1.03;;;22.60;77.00;;;;;;5073680;28;43973;-67
2023/09/21 00:56:05;;;;;;;1.10;1.10;;;22.60;77.40;;;;;;5049301;28;44956;-67
2023/09/21 00:58:37;;;;;;;1.10;1.10;;;22.60;77.40;;;;;;5060485;28;43955;-67
2023/09/21 01:01:05;;;;;;;1.10;1.10;;;22.50;77.30;;;;;;5057880;28;43401;-67
2023/09/21 01:03:37;;;;;;;1.10;1.10;;;22.50;77.40;;;;;;5084000;28;43851;-67
2023/09/21 01:06:11;;;;;;;0.90;0.90;;;22.40;77.70;;;;;;5083394;27;43371;-67
2023/09/21 01:08:41;;;;;;;1.10;1.10;;;22.50;77.70;;;;;;5078549;28;43349;-68
2023/09/21 01:11:10;;;;;;;1.10;1.10;;;22.50;77.70;;;;;;5050960;28;44102;-67
2023/09/21 01:13:39;;;;;;;1.10;1.10;;;22.40;77.50;;;;;;5052340;28;44197;-67
2023/09/21 01:16:10;;;;;;;1.10;1.10;;;22.40;77.90;;;;;;5063683;28;44843;-67
2023/09/21 01:18:40;;;;;;;1.20;1.20;;;22.40;77.90;;;;;;5082627;28;43309;-67
2023/09/21 01:21:09;;;;;;;1.07;1.07;;;22.50;77.40;;;;;;5056652;28;43544;-67
2023/09/21 01:23:42;;;;;;;1.10;1.10;;;22.70;77.10;;;;;;5087289;28;43603;-67
2023/09/21 01:26:11;;;;;;;1.13;1.13;;;22.80;76.60;;;;;;5059006;28;44708;-67
2023/09/21 01:28:40;;;;;;;1.27;1.27;;;22.90;76.20;;;;;;5067385;28;43404;-67
2023/09/21 01:31:13;;;;;;;1.13;1.13;;;22.90;76.30;;;;;;5080909;28;43411;-67
2023/09/21 01:33:42;;;;;;;1.20;1.20;;;22.80;76.30;;;;;;5059259;28;45577;-67
2023/09/21 01:36:12;;;;;;;1.10;1.10;;;22.70;77.30;;;;;;5054767;28;43424;-67
2023/09/21 01:38:45;;;;;;;1.10;1.10;;;22.70;76.90;;;;;;5053512;28;43362;-67
2023/09/21 01:41:15;;;;;;;1.00;1.00;;;22.70;76.90;;;;;;5083114;28;43397;-67
2023/09/21 01:43:44;;;;;;;0.97;0.97;;;22.60;76.90;;;;;;5084296;28;43856;-67
2023/09/21 01:46:17;;;;;;;1.10;1.10;;;22.60;77.00;;;;;;5071441;28;43454;-67
2023/09/21 01:48:46;;;;;;;1.03;1.03;;;22.50;77.40;;;;;;5083210;28;43408;-68
2023/09/21 01:51:16;;;;;;;1.00;1.00;;;22.50;77.40;;;;;;5059026;28;43404;-67
2023/09/21 01:53:47;;;;;;;1.20;1.20;;;22.50;77.40;;;;;;5055488;28;45387;-67
2023/09/21 01:56:15;;;;;;;1.20;1.20;;;22.50;77.40;;;;;;5060275;28;44805;-66
2023/09/21 01:58:43;;;;;;;0.97;0.97;;;22.40;77.60;;;;;;5049604;28;43850;-67
2023/09/21 02:01:16;;;;;;;1.00;1.00;;;22.40;77.80;;;;;;5050225;28;43567;-67
2023/09/21 02:03:45;;;;;;;1.20;1.10;;;22.50;77.50;;;;;;5070827;28;43886;-67
2023/09/21 02:06:13;;;;;;;1.00;1.00;;;22.60;77.00;;;;;;5060996;28;44747;-67
2023/09/21 02:08:42;;;;;;;1.20;1.20;;;22.80;76.70;;;;;;5060448;28;43371;-75
2023/09/21 02:11:12;;;;;;;1.30;1.30;;;22.90;76.30;;;;;;5054962;28;43429;-67
2023/09/21 02:13:41;;;;;;;1.07;1.07;;;22.90;76.10;;;;;;5072869;28;43623;-67
2023/09/21 02:16:09;;;;;;;1.17;1.17;;;22.80;76.30;;;;;;5069676;28;43495;-67
2023/09/21 02:18:37;;;;;;;1.10;1.10;;;22.80;76.50;;;;;;5072621;28;43465;-68
2023/09/21 02:21:08;;;;;;;1.10;1.10;;;22.70;76.90;;;;;;5061243;28;43487;-67
2023/09/21 02:23:38;;;;;;;1.10;1.10;;;22.70;76.90;;;;;;5056622;28;45619;-66
2023/09/21 02:26:09;;;;;;;1.03;1.03;;;22.60;77.00;;;;;;5071470;28;43361;-67
2023/09/21 02:28:39;;;;;;;1.20;1.20;;;22.60;77.00;;;;;;5066613;28;43435;-64
2023/09/21 02:31:11;;;;;;;1.10;1.10;;;22.50;77.50;;;;;;5077429;28;43494;-64
2023/09/21 02:33:42;;;;;;;1.10;1.10;;;22.50;77.40;;;;;;5066697;28;44826;-64
2023/09/21 02:36:19;;;;;;;0.97;0.97;;;22.50;77.40;;;;;;5053772;28;44780;-63
2023/09/21 02:38:48;;;;;;;1.00;1.00;;;22.50;77.40;;;;;;5058685;28;43530;-64
2023/09/21 02:41:17;;;;;;;1.07;1.07;;;22.40;77.80;;;;;;5058438;28;43401;-64
2023/09/21 02:43:46;;;;;;;1.07;1.07;;;22.40;77.80;;;;;;5062774;28;45651;-64
2023/09/21 02:46:15;;;;;;;1.00;1.00;;;22.40;77.80;;;;;;5068176;28;44996;-64
2023/09/21 02:48:44;;;;;;;1.03;1.03;;;22.40;77.60;;;;;;5057248;28;43406;-67
2023/09/21 02:51:15;;;;;;;1.10;1.10;;;22.40;77.70;;;;;;5059924;28;43931;-67
2023/09/21 02:53:44;;;;;;;1.10;1.10;;;22.40;78.10;;;;;;5057692;28;44647;-67
2023/09/21 02:56:12;;;;;;;0.90;0.90;;;22.50;77.80;;;;;;5059757;28;44820;-67
2023/09/21 02:58:40;;;;;;;1.03;1.03;;;22.60;77.30;;;;;;5055103;28;43968;-67
2023/09/21 03:01:11;;;;;;;1.10;1.10;;;22.70;76.80;;;;;;5068503;28;43570;-67
2023/09/21 03:03:40;;;;;;;1.00;1.00;;;22.90;76.40;;;;;;5050047;28;46056;-67
2023/09/21 03:06:08;;;;;;;1.10;1.10;;;22.90;76.10;;;;;;5053156;28;44846;-66
2023/09/21 03:08:38;;;;;;;1.00;1.00;;;22.90;76.10;;;;;;5059059;28;43425;-66
2023/09/21 03:11:10;;;;;;;1.10;1.10;;;22.90;76.30;;;;;;5057586;28;44060;-68
2023/09/21 03:13:38;;;;;;;1.00;1.00;;;22.80;76.60;;;;;;5069650;28;43924;-68
2023/09/21 03:16:10;;;;;;;1.03;1.03;;;22.70;76.60;;;;;;5068831;28;43792;-66
2023/09/21 03:18:41;;;;;;;1.10;1.10;;;22.70;76.70;;;;;;5054138;28;43447;-66
2023/09/21 03:21:15;;;;;;;1.10;1.10;;;22.60;76.80;;;;;;5056914;28;43539;-66
2023/09/21 03:23:45;;;;;;;1.00;1.00;;;22.60;77.20;;;;;;5064961;28;43769;-66
2023/09/21 03:26:15;;;;;;;1.17;1.17;;;22.50;77.40;;;;;;5072095;28;43451;-67
2023/09/21 03:28:44;;;;;;;1.00;1.00;;;22.50;77.40;;;;;;5067853;28;43353;-73
2023/09/21 03:31:15;;;;;;;1.10;1.10;;;22.50;77.40;;;;;;5071497;28;43542;-68
2023/09/21 03:33:47;;;;;;;1.10;1.10;;;22.50;77.50;;;;;;5049913;28;44159;-66
2023/09/21 03:36:16;;;;;;;1.10;1.10;;;22.40;77.90;;;;;;5066936;28;43984;-67
2023/09/21 03:38:47;;;;;;;1.17;1.17;;;22.50;77.80;;;;;;5062184;28;43427;-66
2023/09/21 03:41:15;;;;;;;1.00;1.00;;;22.60;77.40;;;;;;5060622;28;44729;-66
2023/09/21 03:43:44;;;;;;;1.10;1.10;;;22.70;76.80;;;;;;5070986;28;43928;-67
2023/09/21 03:46:12;;;;;;;0.90;0.90;;;22.80;76.50;;;;;;5070191;28;43423;-67
2023/09/21 03:48:40;;;;;;;0.90;0.90;;;22.80;76.40;;;;;;5055934;28;43446;-67
2023/09/21 03:51:10;;;;;;;1.10;1.10;;;22.70;76.40;;;;;;5058518;28;43519;-67
2023/09/21 03:53:39;;;;;;;1.00;1.00;;;22.70;76.70;;;;;;5075044;28;43862;-67
2023/09/21 03:56:07;;;;;;;0.90;0.90;;;22.60;77.00;;;;;;5050709;28;44574;-67
2023/09/21 03:58:36;;;;;;;1.10;1.10;;;22.60;77.00;;;;;;5054086;28;43452;-67
2023/09/21 04:01:08;;;;;;;0.90;0.90;;;22.60;77.10;;;;;;5065319;28;43733;-67
2023/09/21 04:03:36;;;;;;;1.00;1.00;;;22.50;77.10;;;;;;5057812;28;45701;-67
2023/09/21 04:06:06;;;;;;;1.00;1.00;;;22.50;77.60;;;;;;5054878;28;43960;-69
2023/09/21 04:08:35;;;;;;;1.00;1.00;;;22.50;77.60;;;;;;5059761;28;43465;-67
2023/09/21 04:11:04;;;;;;;0.90;0.90;;;22.50;77.60;;;;;;5076818;28;43365;-67
2023/09/21 04:13:32;;;;;;;0.90;0.90;;;22.50;77.60;;;;;;5059224;28;44201;-69
2023/09/21 04:16:04;;;;;;;1.00;1.00;;;22.40;77.50;;;;;;5078600;28;43778;-69
2023/09/21 04:18:32;;;;;;;1.10;1.10;;;22.40;77.90;;;;;;5048675;28;43426;-67
2023/09/21 04:21:00;;;;;;;0.90;0.90;;;22.50;77.80;;;;;;5058325;28;44083;-67
2023/09/21 04:23:48;;;;;;;1.00;1.00;;;22.60;77.40;;;;;;5062797;28;45364;-67
2023/09/21 04:26:16;;;;;;;1.07;1.07;;;22.70;76.80;;;;;;5061196;28;43732;-68
2023/09/21 04:28:49;;;;;;;0.80;0.80;;;22.80;77.20;;;;;;5051175;28;43447;-68
2023/09/21 04:31:18;;;;;;;0.83;0.83;;;22.90;76.40;;;;;;5053020;28;43446;-66
2023/09/21 04:33:47;;;;;;;1.00;1.00;;;22.80;76.40;;;;;;5058024;28;45748;-68
2023/09/21 04:36:15;;;;;;;1.00;1.00;;;22.70;76.50;;;;;;5051245;28;44188;-68
2023/09/21 04:38:44;;;;;;;0.97;0.97;;;22.70;77.70;;;;;;5052691;28;43456;-67
2023/09/21 04:41:15;;;;;;;1.10;1.10;;;22.60;77.00;;;;;;5069275;28;43449;-68
2023/09/21 04:43:45;;;;;;;0.87;0.87;;;22.60;77.10;;;;;;5069172;28;44820;-67
2023/09/21 04:46:13;;;;;;;1.00;1.00;;;22.60;77.10;;;;;;5054563;28;43396;-67
2023/09/21 04:48:42;;;;;;;1.10;1.10;;;22.50;77.30;;;;;;5060066;28;43403;-67
2023/09/21 04:51:12;;;;;;;0.97;0.97;;;22.50;77.50;;;;;;5074741;28;43705;-68
2023/09/21 04:53:43;;;;;;;1.10;1.10;;;22.50;77.40;;;;;;5060499;28;43837;-68
2023/09/21 04:56:11;;;;;;;0.80;0.80;;;22.60;77.00;;;;;;5060951;28;43788;-68
2023/09/21 04:58:41;;;;;;;1.00;1.00;;;22.70;77.50;;;;;;5068593;28;43439;-68
2023/09/21 05:01:10;;;;;;;1.07;1.07;;;22.70;76.90;;;;;;5069785;28;43587;-68
2023/09/21 05:03:39;;;;;;;1.00;1.00;;;22.60;77.10;;;;;;5065433;28;45950;-68
2023/09/21 05:06:07;;;;;;;1.00;1.00;;;22.60;77.10;;;;;;5064360;28;44758;-68
2023/09/21 05:08:36;;;;;;;0.90;0.90;;;22.60;77.10;;;;;;5064704;28;43371;-69
2023/09/21 05:11:04;;;;;;;1.00;1.00;;;22.60;77.10;;;;;;5053967;28;43528;-69
2023/09/21 05:13:32;;;;;;;1.00;1.00;;;22.50;77.10;;;;;;5069217;28;44121;-69
2023/09/21 05:16:04;;;;;;;0.97;0.97;;;22.50;77.60;;;;;;5077166;28;43427;-69
2023/09/21 05:18:32;;;;;;;1.03;1.03;;;22.50;77.50;;;;;;5075844;28;43497;-69
2023/09/21 05:21:04;;;;;;;0.90;0.90;;;22.50;77.50;;;;;;5070438;28;43420;-69
2023/09/21 05:23:33;;;;;;;0.90;0.90;;;22.50;77.50;;;;;;5077055;28;43870;-69
2023/09/21 05:26:02;;;;;;;0.90;0.90;;;22.40;77.70;;;;;;5070288;28;43410;-69
2023/09/21 05:28:30;;;;;;;1.00;1.00;;;22.40;77.70;;;;;;5075799;28;43904;-71
2023/09/21 05:30:58;;;;;;;1.00;1.00;;;22.50;77.50;;;;;;5073146;28;43435;-69
2023/09/21 05:33:27;;;;;;;1.10;1.10;;;22.60;77.10;;;;;;5071092;28;43773;-69
2023/09/21 05:35:56;;;;;;;1.00;1.00;;;22.80;76.40;;;;;;5075560;28;43467;-71
2023/09/21 05:38:24;;;;;;;1.30;1.00;;;22.80;76.20;;;;;;5078606;28;43431;-71
2023/09/21 05:40:52;;;;;;;0.90;0.90;;;22.80;76.10;;;;;;5072904;28;43412;-71
2023/09/21 05:43:21;;;;;;;1.10;1.10;;;22.80;76.30;;;;;;5072664;28;44947;-69
2023/09/21 05:45:49;;;;;;;1.00;1.00;;;22.70;76.60;;;;;;5071509;28;43370;-69
2023/09/21 05:48:19;;;;;;;0.93;0.93;;;22.60;76.70;;;;;;5071067;28;43385;-69
2023/09/21 05:50:49;;;;;;;1.00;1.00;;;22.60;76.70;;;;;;5075628;28;43433;-71
2023/09/21 05:53:17;;;;;;;1.00;1.00;;;22.60;76.90;;;;;;5069806;28;43860;-69
2023/09/21 05:55:45;;;;;;;1.00;1.00;;;22.50;77.00;;;;;;5086363;28;43599;-71
2023/09/21 05:58:13;;;;;;;0.90;0.90;;;22.50;77.40;;;;;;5075568;28;43399;-71
2023/09/21 06:00:41;;;;;;;1.10;1.10;;;22.50;77.40;;;;;;5074471;28;43361;-71
2023/09/21 06:03:09;;;;;;;1.00;1.00;;;22.50;77.50;;;;;;5075468;28;43888;-69
2023/09/21 06:05:38;;;;;;;1.03;1.03;;;22.40;77.40;;;;;;5069721;28;43483;-69
2023/09/21 06:08:07;;;;;;;1.00;1.00;;;22.40;77.70;;;;;;5069971;28;43956;-69
2023/09/21 06:10:35;;;;;;;0.90;0.90;;;22.40;77.80;;;;;;5069659;28;43388;-70
2023/09/21 06:13:07;;;;;;;0.87;0.87;;;22.40;77.80;;;;;;5069808;28;43682;-69
2023/09/21 06:15:37;;;;;;;1.10;0.90;;;22.40;77.70;;;;;;5069785;28;43462;-69
2023/09/21 06:18:05;;;;;;;1.00;1.00;;;22.40;77.70;;;;;;5070916;28;43439;-67
2023/09/21 06:20:34;;;;;;;0.90;0.90;;;22.30;78.00;;;;;;5071425;28;43435;-67
2023/09/21 06:23:06;;;;;;;0.90;0.90;;;22.40;77.90;;;;;;5078850;28;45056;-68
2023/09/21 06:25:36;;;;;;;0.80;0.80;;;22.50;77.60;;;;;;5076487;28;43581;-68
2023/09/21 06:28:05;;;;;;;1.10;1.10;;;22.60;77.10;;;;;;5072219;28;43411;-67
2023/09/21 06:30:33;;;;;;;0.90;0.90;;;22.70;76.50;;;;;;5073443;28;43427;-68
2023/09/21 06:33:01;;;;;;;0.97;0.97;;;22.80;76.40;;;;;;5073640;28;43762;-68
2023/09/21 06:35:29;;;;;;;0.93;0.93;;;22.80;76.40;;;;;;5074844;28;43388;-67
2023/09/21 06:37:59;;;;;;;1.07;1.07;;;22.70;76.40;;;;;;5073351;28;43468;-67
2023/09/21 06:40:28;;;;;;;0.90;0.90;;;22.60;76.80;;;;;;5074886;28;43361;-67
2023/09/21 06:42:57;;;;;;;0.90;0.90;;;22.60;76.90;;;;;;5074352;28;43616;-67
2023/09/21 06:45:31;;;;;;;0.90;0.90;;;22.60;77.00;;;;;;5073103;28;43500;-67
2023/09/21 06:48:01;;;;;;;0.83;0.83;;;22.50;77.00;;;;;;5073017;28;43434;-67
2023/09/21 06:50:29;;;;;;;1.00;1.00;;;22.50;77.30;;;;;;5073226;28;43467;-68
2023/09/21 06:52:58;;;;;;;1.10;1.10;;;22.40;77.50;;;;;;5072304;28;44179;-68
2023/09/21 06:55:27;;;;;;;0.90;0.90;;;22.40;77.50;;;;;;5072742;28;43916;-67
2023/09/21 06:57:57;;;;;;;0.90;0.90;;;22.40;77.50;;;;;;5072269;28;43378;-68
2023/09/21 07:00:25;;;;;;;1.07;1.07;;;22.40;77.50;;;;;;5066842;28;43399;-68
2023/09/21 07:02:54;;;;;;;0.90;0.90;;;22.40;77.90;;;;;;5068860;28;43584;-67
2023/09/21 07:05:22;;;;;;;1.00;1.00;;;22.40;77.60;;;;;;5068152;28;43963;-67
2023/09/21 07:07:50;;;;;;;0.87;0.87;;;22.50;77.20;;;;;;5056533;28;43456;-68
2023/09/21 07:10:18;;;;;;;0.90;0.90;;;22.70;76.70;;;;;;5065542;28;43350;-67
2023/09/21 07:12:46;;;;;;;1.10;1.10;;;22.70;76.50;;;;;;5069852;28;43609;-68
2023/09/21 07:15:15;;;;;;;0.90;0.90;;;22.70;76.40;;;;;;5065711;28;43454;-69
2023/09/21 07:17:45;;;;;;;1.00;1.00;;;22.70;76.60;;;;;;5065044;28;43391;-69
2023/09/21 07:20:14;;;;;;;0.90;0.90;;;22.60;76.70;;;;;;5072521;28;43344;-67
2023/09/21 07:22:42;;;;;;;0.90;0.90;;;22.50;77.10;;;;;;5070256;28;43904;-68
2023/09/21 07:25:10;;;;;;;0.90;0.90;;;22.50;77.10;;;;;;5071007;28;43416;-67
2023/09/21 07:27:37;;;;;;;0.90;0.90;;;22.50;77.20;;;;;;5071995;28;43448;-66
2023/09/21 07:30:07;;;;;;;0.90;0.90;;;22.40;77.20;;;;;;5070778;28;43934;-63
2023/09/21 07:32:37;;;;;;;1.03;1.03;;;22.40;77.60;;;;;;5069892;28;43624;-63
2023/09/21 07:35:06;;;;;;;1.13;1.13;;;22.40;77.60;;;;;;5070630;28;43365;-64
2023/09/21 07:37:34;;;;;;;1.10;1.10;;;22.50;77.40;;;;;;5075131;28;43940;-64
2023/09/21 07:40:06;;;;;;;0.90;0.90;;;22.60;76.90;;;;;;5076418;28;43583;-63
2023/09/21 07:42:34;;;;;;;1.00;1.00;;;22.70;76.60;;;;;;5068729;28;43936;-65
2023/09/21 07:45:02;;;;;;;1.00;1.00;;;22.70;76.40;;;;;;5070373;28;43829;-65
2023/09/21 07:47:31;;;;;;;0.90;0.90;;;22.70;76.50;;;;;;5069328;28;43442;-64
2023/09/21 07:50:00;;;;;;;0.90;0.90;;;22.60;76.60;;;;;;5070231;28;43828;-64
2023/09/21 07:52:29;;;;;;;1.00;1.00;;;22.60;77.00;;;;;;5068924;28;43850;-64
2023/09/21 07:54:57;;;;;;;0.90;0.90;;;22.50;77.10;;;;;;5052705;28;43409;-64
2023/09/21 07:57:25;;;;;;;0.90;0.90;;;22.50;77.10;;;;;;5068789;28;43431;-64
2023/09/21 07:59:53;;;;;;;0.77;0.77;;;22.50;77.20;;;;;;5069577;28;43782;-65
2023/09/21 08:02:22;;;;;;;1.07;1.07;;;22.40;77.40;;;;;;5068111;28;43907;-64
2023/09/21 08:04:50;;;;;;;0.90;0.90;;;22.40;77.70;;;;;;5068909;28;43423;-64
2023/09/21 08:07:23;;;;;;;1.00;1.00;;;22.40;77.60;;;;;;5068991;28;43396;-64
2023/09/21 08:09:51;;;;;;;0.80;0.80;;;22.30;77.50;;;;;;5069702;28;43388;-64
2023/09/21 08:12:19;;;;;;;1.00;1.00;;;22.30;77.50;;;;;;5069449;28;43931;-67
2023/09/21 08:14:47;;;;;;;1.00;1.00;;;22.30;77.80;;;;;;5065421;28;43431;-65
2023/09/21 08:17:15;;;;;;;0.90;0.90;;;22.30;77.90;;;;;;5064396;28;43429;-65
2023/09/21 08:19:43;;;;;;;0.90;0.90;;;22.40;77.60;;;;;;5071903;28;43459;-64
2023/09/21 08:22:11;;;;;;;0.90;0.90;;;22.50;77.20;;;;;;5075667;28;43826;-65
2023/09/21 08:24:41;;;;;;;0.77;0.77;;;22.70;76.70;;;;;;5072649;28;43925;-65
2023/09/21 08:27:09;;;;;;;1.00;1.00;;;22.80;76.40;;;;;;5075889;28;43420;-64
2023/09/21 08:29:37;;;;;;;0.80;0.80;;;22.80;76.40;;;;;;5069908;28;43400;-64
2023/09/21 08:32:05;;;;;;;0.90;0.90;;;22.70;76.30;;;;;;5071502;28;44210;-64
2023/09/21 08:34:33;;;;;;;0.93;0.93;;;22.60;76.60;;;;;;5072689;28;43443;-64
2023/09/21 08:37:02;;;;;;;0.73;0.73;;;22.60;77.00;;;;;;5072181;28;43435;-64
2023/09/21 08:39:30;;;;;;;0.70;0.70;;;22.50;77.00;;;;;;5073091;28;43348;-71
2023/09/21 08:42:00;;;;;;;0.80;0.80;;;22.50;77.10;;;;;;5071615;28;43882;-71
2023/09/21 08:44:29;;;;;;;0.80;0.80;;;22.50;77.20;;;;;;5070653;28;43957;-69
2023/09/21 08:46:57;;;;;;;0.83;0.83;;;22.40;77.60;;;;;;5070682;28;43305;-69
2023/09/21 08:49:25;;;;;;;1.00;1.00;;;22.40;77.60;;;;;;5071236;28;43525;-70
2023/09/21 08:51:53;;;;;;;0.83;0.83;;;22.40;77.60;;;;;;5076920;28;43842;-69
2023/09/21 08:54:23;;;;;;;0.80;0.80;;;22.40;77.60;;;;;;5072420;28;44033;-69
2023/09/21 08:56:55;;;;;;;0.90;0.90;;;22.30;77.60;;;;;;5068562;28;44296;-70
2023/09/21 08:59:24;;;;;;;1.00;1.00;;;22.30;78.70;;;;;;5076093;28;43989;-70
2023/09/21 09:01:52;;;;;;;0.87;0.87;;;22.30;77.70;;;;;;5071184;28;43694;-69
2023/09/21 09:04:21;;;;;;;1.00;1.00;;;22.40;77.30;;;;;;5070500;28;43379;-70
2023/09/21 09:06:51;;;;;;;0.90;0.90;;;22.50;77.00;;;;;;5070644;28;44007;-70
2023/09/21 09:09:19;;;;;;;0.90;0.90;;;22.50;76.80;;;;;;5074450;28;43422;-70
2023/09/21 09:11:48;;;;;;;0.80;0.80;;;22.50;76.90;;;;;;5074496;28;43600;-70
2023/09/21 09:14:16;;;;;;;0.90;0.90;;;22.50;77.10;;;;;;5070258;28;43451;-71
2023/09/21 09:16:47;;;;;;;0.90;0.90;;;22.50;76.90;;;;;;5075687;28;43443;-72
2023/09/21 09:19:15;;;;;;;0.90;0.90;;;22.50;76.70;;;;;;5070099;28;44486;-70
2023/09/21 09:21:44;;;;;;;0.80;0.80;;;22.50;77.00;;;;;;5070000;28;43821;-70
2023/09/21 09:24:14;;;;;;;0.87;0.87;;;22.40;77.20;;;;;;5070027;28;43441;-70
2023/09/21 09:26:42;;;;;;;1.00;1.00;;;22.40;77.40;;;;;;5063850;28;43377;-70
2023/09/21 09:29:12;;;;;;;0.80;0.80;;;22.40;77.10;;;;;;5077322;28;43455;-70
2023/09/21 09:31:41;;;;;;;1.10;1.10;;;22.50;76.90;;;;;;5070148;28;43843;-69
2023/09/21 09:34:16;;;;;;;0.90;0.90;;;22.50;76.80;;;;;;5070114;28;44005;-70
2023/09/21 09:36:46;;;;;;;0.90;0.90;;;22.50;76.80;;;;;;5075299;28;43559;-71
2023/09/21 09:39:15;;;;;;;0.83;0.83;;;22.50;77.00;;;;;;5072320;28;44174;-69
2023/09/21 09:41:43;;;;;;;0.77;0.77;;;22.50;76.90;;;;;;5076636;28;43925;-71
2023/09/21 09:44:11;;;;;;;0.77;0.77;;;22.50;77.00;;;;;;5077310;28;43407;-71
2023/09/21 09:46:42;;;;;;;0.90;0.90;;;22.40;77.00;;;;;;5074471;28;43291;-71
2023/09/21 09:49:12;;;;;;;0.90;0.90;;;22.40;77.20;;;;;;5074299;28;43569;-67
2023/09/21 09:51:42;;;;;;;0.97;0.97;;;22.40;77.30;;;;;;5073370;28;43792;-68
2023/09/21 09:54:11;;;;;;;0.90;0.90;;;22.40;77.30;;;;;;5079519;28;44412;-68
2023/09/21 09:56:41;;;;;;;0.90;0.90;;;22.40;77.30;;;;;;5073812;28;43396;-68
2023/09/21 09:59:11;;;;;;;0.90;0.90;;;22.30;77.40;;;;;;5072631;28;43513;-68
2023/09/21 10:01:41;;;;;;;0.90;0.90;;;22.30;77.60;;;;;;5076307;28;44044;-68
2023/09/21 10:04:09;;;;;;;0.90;0.90;;;22.30;77.70;;;;;;5076181;28;43443;-68
2023/09/21 10:06:41;;;;;;;1.03;1.03;;;22.30;77.50;;;;;;5066680;28;43358;-67
2023/09/21 10:09:10;;;;;;;0.80;0.80;;;22.30;78.20;;;;;;5081134;28;43438;-68
2023/09/21 10:11:42;;;;;;;0.90;0.90;;;22.30;77.50;;;;;;5073750;28;43610;-67
2023/09/21 10:14:11;;;;;;;1.13;1.10;;;22.30;77.80;;;;;;5072319;28;43482;-68
2023/09/21 10:16:48;;;;;;;1.03;1.03;;;22.30;77.50;;;;;;5078763;28;43939;-68
2023/09/21 10:19:17;;;;;;;1.00;1.00;;;22.40;77.20;;;;;;5072219;28;43417;-69
2023/09/21 10:21:47;;;;;;;1.00;1.00;;;22.60;76.80;;;;;;5077837;28;43622;-69
2023/09/21 10:24:18;;;;;;;1.00;1.00;;;22.70;76.30;;;;;;5076523;28;43426;-68
2023/09/21 10:26:50;;;;;;;1.00;1.00;;;22.80;76.00;;;;;;5074802;28;43364;-69
2023/09/21 10:29:19;;;;;;;1.00;1.00;;;22.80;75.70;;;;;;5079815;28;43462;-69
2023/09/21 10:31:54;;;;;;;1.03;1.03;;;22.70;75.80;;;;;;5079761;28;43600;-67
2023/09/21 10:34:23;;;;;;;0.80;0.80;;;22.70;76.30;;;;;;5083838;28;43407;-67
2023/09/21 10:36:53;;;;;;;1.23;1.23;;;22.60;76.20;;;;;;5077770;28;43482;-68
2023/09/21 10:39:28;;;;;;;1.10;1.10;;;22.60;76.40;;;;;;5080350;28;43775;-68
2023/09/21 10:42:19;;;;;;;0.90;0.90;;;22.50;76.50;;;;;;5082623;28;43924;-68
2023/09/21 10:44:59;;;;;;;1.00;1.00;;;22.50;76.80;;;;;;5073204;28;43454;-67
2023/09/21 10:47:35;;;;;;;1.00;1.00;;;22.50;77.00;;;;;;5078955;28;43343;-67
2023/09/21 10:50:04;;;;;;;0.87;0.87;;;22.50;77.10;;;;;;5079679;28;43423;-67
2023/09/21 10:52:34;;;;;;;1.00;1.00;;;22.40;77.10;;;;;;5085701;28;43895;-66
2023/09/21 10:55:02;;;;;;;1.00;1.00;;;22.40;77.30;;;;;;5081176;28;43419;-67
2023/09/21 10:57:31;;;;;;;0.90;0.90;;;22.40;77.50;;;;;;5079221;28;43324;-67
2023/09/21 11:00:00;;;;;;;1.00;1.00;;;22.40;77.40;;;;;;5072521;28;43467;-66
2023/09/21 11:02:40;;;;;;;1.20;1.20;;;22.40;77.40;;;;;;5065361;28;43681;-67
2023/09/21 11:05:09;;;;;;;1.10;1.10;;;22.40;77.20;;;;;;5075321;28;43591;-67
2023/09/21 11:07:40;;;;;;;1.00;1.00;;;22.30;77.40;;;;;;5068429;28;43313;-74
2023/09/21 11:10:10;;;;;;;1.10;1.10;;;22.30;77.60;;;;;;5067718;28;44087;-67
2023/09/21 11:12:40;;;;;;;0.93;0.93;;;22.40;77.20;;;;;;5067970;28;43851;-66
2023/09/21 11:15:12;;;;;;;1.00;1.00;;;22.50;76.70;;;;;;5076313;28;43422;-67
2023/09/21 11:17:42;;;;;;;0.87;0.87;;;22.70;76.40;;;;;;5063582;28;43439;-67
2023/09/21 11:20:13;;;;;;;0.90;0.90;;;22.80;75.90;;;;;;5063881;28;43345;-67
2023/09/21 11:22:43;;;;;;;0.97;0.97;;;22.80;75.80;;;;;;5068719;28;44123;-66
2023/09/21 11:25:12;;;;;;;1.60;1.10;;;22.70;75.90;;;;;;5069123;28;43918;-66
2023/09/21 11:27:41;;;;;;;0.90;0.90;;;22.70;75.90;;;;;;5069467;28;43434;-67
2023/09/21 11:30:13;;;;;;;1.87;1.00;;;22.60;76.30;;;;;;5069484;28;43472;-67
2023/09/21 11:32:43;;;;;;;0.90;0.83;;;22.60;76.10;;;;;;5068835;28;43613;-67
2023/09/21 11:35:12;;;;;;;1.47;1.20;;;22.60;76.60;;;;;;5068577;28;43468;-68
2023/09/21 11:37:41;;;;;;;23.33;5.50;;;22.50;76.70;;;;;;5069290;28;43402;-66
2023/09/21 11:40:13;;;;;;;41.37;7.63;;;22.50;77.00;;;;;;5069473;28;43380;-66
2023/09/21 11:42:44;;;;;;;34.67;7.57;;;22.50;77.10;;;;;;5071131;28;43644;-66
2023/09/21 11:45:17;;;;;;;20.80;5.60;;;22.40;77.00;;;;;;5073306;28;43388;-67
2023/09/21 11:47:49;;;;;;;29.40;8.00;;;22.40;77.00;;;;;;5068630;28;43367;-67
2023/09/21 11:50:25;;;;;;;28.13;7.90;;;22.40;77.40;;;;;;5068719;28;43509;-66
2023/09/21 11:52:56;;;;;;;26.50;7.70;;;22.40;77.30;;;;;;5068759;28;43949;-67
2023/09/21 11:55:26;;;;;;;24.20;7.23;;;22.50;77.00;;;;;;5068801;28;43666;-67
2023/09/21 11:58:04;;;;;;;20.23;7.37;;;22.60;76.60;;;;;;5057464;28;43524;-66
2023/09/21 12:00:43;;;;;;;21.67;6.87;;;22.70;76.20;;;;;;5067045;28;43996;-68
2023/09/21 12:03:18;;;;;;;23.07;6.40;;;22.70;75.90;;;;;;5082697;28;44100;-67
2023/09/21 12:05:47;;;;;;;16.80;6.40;;;22.70;76.20;;;;;;5081866;28;44026;-67
2023/09/21 12:08:19;;;;;;;20.63;6.60;;;22.60;76.30;;;;;;5086446;28;43915;-70
2023/09/21 12:10:50;;;;;;;19.13;6.40;;;22.60;76.70;;;;;;5091013;28;43384;-70
2023/09/21 12:13:19;;;;;;;14.00;5.30;;;22.50;76.50;;;;;;5073851;28;43884;-70
2023/09/21 12:15:47;;;;;;;12.53;5.40;;;22.50;76.70;;;;;;5086265;28;43355;-70
2023/09/21 12:18:16;;;;;;;15.40;6.00;;;22.50;76.90;;;;;;5086998;28;43387;-70
2023/09/21 12:20:51;;;;;;;14.27;5.20;;;22.40;77.70;;;;;;5077875;28;43550;-70
2023/09/21 12:23:21;;;;;;;17.00;5.43;;;22.40;77.00;;;;;;5070541;28;43674;-70
2023/09/21 12:25:50;;;;;;;10.90;5.20;;;22.40;77.70;;;;;;5076563;28;43429;-70
2023/09/21 12:28:19;;;;;;;10.43;5.10;;;22.40;77.10;;;;;;5069502;28;43450;-70
2023/09/21 12:30:48;;;;;;;11.77;4.93;;;22.30;77.00;;;;;;5077369;28;43387;-69
2023/09/21 12:33:17;;;;;;;10.07;4.90;;;22.30;77.20;;;;;;5077187;28;43616;-70
2023/09/21 12:35:48;;;;;;;9.73;4.33;;;22.30;77.40;;;;;;5076560;28;43428;-70
2023/09/21 12:38:16;;;;;;;9.73;4.33;;;22.40;77.10;;;;;;5089919;28;43392;-70
2023/09/21 12:40:47;;;;;;;8.13;4.07;;;22.50;76.70;;;;;;5086447;28;43546;-70
2023/09/21 12:43:17;;;;;;;8.60;4.27;;;22.70;76.20;;;;;;5081992;28;44274;-69
2023/09/21 12:45:45;;;;;;;7.40;3.67;;;22.70;75.90;;;;;;5076312;28;43340;-70
2023/09/21 12:48:14;;;;;;;8.43;4.30;;;22.70;75.90;;;;;;5080845;28;43475;-69
2023/09/21 12:50:42;;;;;;;8.53;4.17;;;22.70;76.40;;;;;;5076447;28;43420;-70
2023/09/21 12:53:10;;;;;;;9.63;3.93;;;22.60;76.60;;;;;;5089318;28;43616;-70
2023/09/21 12:55:40;;;;;;;7.23;4.40;;;22.60;76.70;;;;;;5081794;28;43629;-70
2023/09/21 12:58:11;;;;;;;8.50;3.87;;;22.60;76.80;;;;;;5084694;28;43417;-70